createdAt,value
2022-11-25T00:00:51.470Z,25.80
2022-11-25T00:03:23.388Z,25.80
2022-11-25T00:05:54.546Z,25.80
2022-11-25T00:08:25.764Z,25.80
2022-11-25T00:11:06.957Z,25.90
2022-11-25T00:13:40.200Z,25.80
2022-11-25T00:16:13.359Z,25.80
2022-11-25T00:18:49.016Z,25.90
2022-11-25T00:21:22.197Z,25.90
2022-11-25T00:24:04.036Z,25.90
2022-11-25T00:26:38.140Z,25.90
2022-11-25T00:29:11.497Z,25.90
2022-11-25T00:31:43.402Z,25.90
2022-11-25T00:34:18.851Z,25.90
2022-11-25T00:36:54.844Z,25.90
2022-11-25T00:39:26.816Z,26.00
2022-11-25T00:42:15.749Z,26.00
2022-11-25T00:44:48.385Z,26.00
2022-11-25T00:47:21.071Z,26.00
2022-11-25T00:49:54.457Z,26.00
2022-11-25T00:52:28.324Z,26.00
2022-11-25T00:55:02.530Z,26.00
2022-11-25T00:57:33.732Z,26.00
2022-11-25T01:00:05.114Z,26.10
2022-11-25T01:02:36.195Z,26.00
2022-11-25T01:05:07.451Z,26.10
2022-11-25T01:07:39.639Z,26.10
2022-11-25T01:10:12.325Z,26.10
2022-11-25T01:12:43.400Z,26.20
2022-11-25T01:15:14.732Z,26.20
2022-11-25T01:17:45.663Z,26.20
2022-11-25T01:20:18.692Z,26.20
2022-11-25T01:22:51.163Z,26.20
2022-11-25T01:25:22.818Z,26.30
2022-11-25T01:27:53.785Z,26.30
2022-11-25T01:30:25.384Z,26.30
2022-11-25T01:32:56.530Z,26.30
2022-11-25T01:35:27.414Z,26.40
2022-11-25T01:38:18.715Z,26.40
2022-11-25T01:40:49.612Z,26.40
2022-11-25T01:43:20.655Z,26.50
2022-11-25T01:45:52.194Z,26.60
2022-11-25T01:48:28.472Z,26.60
2022-11-25T01:50:59.495Z,26.70
2022-11-25T01:53:33.515Z,26.80
2022-11-25T01:56:07.964Z,26.80
2022-11-25T01:58:40.531Z,26.80
2022-11-25T02:01:12.074Z,26.80
2022-11-25T02:03:51.828Z,26.90
2022-11-25T02:06:31.631Z,26.90
2022-11-25T02:09:08.222Z,26.80
2022-11-25T02:11:41.476Z,26.80
2022-11-25T02:14:16.933Z,26.80
2022-11-25T02:16:49.046Z,26.90
2022-11-25T02:19:28.613Z,26.90
2022-11-25T02:22:01.873Z,27.00
2022-11-25T02:24:44.020Z,27.00
2022-11-25T02:27:15.951Z,27.00
2022-11-25T02:29:47.408Z,27.00
2022-11-25T02:32:18.368Z,27.00
2022-11-25T02:34:52.992Z,27.00
2022-11-25T02:37:25.702Z,27.00
2022-11-25T02:39:59.807Z,27.00
2022-11-25T02:42:32.210Z,27.00
2022-11-25T02:45:03.602Z,26.90
2022-11-25T02:47:34.899Z,26.90
2022-11-25T02:50:06.678Z,26.90
2022-11-25T02:52:37.609Z,26.90
2022-11-25T02:55:09.119Z,26.90
2022-11-25T02:57:40.624Z,26.80
2022-11-25T03:00:12.186Z,26.80
2022-11-25T03:02:46.032Z,26.80
2022-11-25T03:05:17.433Z,26.70
2022-11-25T03:07:48.557Z,26.70
2022-11-25T03:10:21.642Z,26.70
2022-11-25T03:12:54.110Z,26.70
2022-11-25T03:15:25.027Z,26.70
2022-11-25T03:17:56.473Z,26.70
2022-11-25T03:20:27.681Z,26.70
2022-11-25T03:22:58.660Z,26.70
2022-11-25T03:25:29.693Z,26.70
2022-11-25T03:28:00.905Z,26.70
2022-11-25T03:30:52.409Z,26.70
2022-11-25T03:33:26.277Z,26.70
2022-11-25T03:35:57.291Z,26.70
2022-11-25T03:38:30.012Z,26.60
2022-11-25T03:41:21.047Z,26.60
2022-11-25T03:43:52.374Z,26.60
2022-11-25T03:46:23.412Z,26.60
2022-11-25T03:48:54.569Z,26.60
2022-11-25T03:51:25.483Z,26.60
2022-11-25T03:53:56.367Z,26.60
2022-11-25T03:56:27.270Z,26.50
2022-11-25T03:58:58.983Z,26.50
2022-11-25T04:01:30.485Z,26.50
2022-11-25T04:04:01.406Z,26.60
2022-11-25T04:06:33.263Z,26.60
2022-11-25T04:09:05.528Z,26.70
2022-11-25T04:11:58.762Z,26.80
2022-11-25T04:14:31.377Z,26.80
2022-11-25T04:17:02.825Z,26.90
2022-11-25T04:19:34.012Z,27.00
2022-11-25T04:22:06.066Z,27.10
2022-11-25T04:24:38.106Z,27.10
2022-11-25T04:27:09.457Z,27.20
2022-11-25T04:29:40.763Z,27.40
2022-11-25T04:32:11.835Z,27.60
2022-11-25T04:34:42.977Z,27.80
2022-11-25T04:37:19.499Z,28.00
2022-11-25T04:39:51.827Z,28.20
2022-11-25T04:42:36.038Z,28.40
2022-11-25T04:45:24.828Z,28.50
2022-11-25T04:47:45.069Z,28.70
2022-11-25T04:50:18.791Z,28.80
2022-11-25T04:52:49.667Z,29.00
2022-11-25T04:55:20.819Z,29.20
2022-11-25T04:57:52.426Z,29.30
2022-11-25T05:00:24.524Z,29.40
2022-11-25T05:02:56.963Z,29.40
2022-11-25T05:05:27.908Z,29.60
2022-11-25T05:08:00.475Z,29.60
2022-11-25T05:10:31.537Z,29.70
2022-11-25T05:13:08.056Z,29.80
2022-11-25T05:15:39.270Z,29.80
2022-11-25T05:18:10.180Z,29.90
2022-11-25T05:20:41.294Z,30.00
2022-11-25T05:23:12.690Z,30.00
2022-11-25T05:25:45.247Z,30.00
2022-11-25T05:28:18.095Z,30.10
2022-11-25T05:30:49.720Z,30.10
2022-11-25T05:33:21.225Z,30.30
2022-11-25T05:35:59.898Z,30.40
2022-11-25T05:38:31.663Z,30.50
2022-11-25T05:41:07.136Z,30.60
2022-11-25T05:43:38.571Z,30.70
2022-11-25T05:46:10.195Z,30.80
2022-11-25T05:48:42.029Z,30.80
2022-11-25T05:51:13.260Z,30.90
2022-11-25T05:53:45.288Z,31.00
2022-11-25T05:56:16.331Z,31.00
2022-11-25T05:58:47.539Z,31.00
2022-11-25T06:01:19.428Z,30.90
2022-11-25T06:03:50.672Z,30.80
2022-11-25T06:06:22.353Z,30.70
2022-11-25T06:08:53.254Z,30.70
2022-11-25T06:11:24.391Z,30.60
2022-11-25T06:13:55.273Z,30.70
2022-11-25T06:16:26.465Z,30.70
2022-11-25T06:18:58.401Z,30.80
2022-11-25T06:21:29.860Z,30.70
2022-11-25T06:24:04.390Z,30.70
2022-11-25T06:26:35.294Z,30.60
2022-11-25T06:29:06.231Z,30.50
2022-11-25T06:31:37.193Z,30.40
2022-11-25T06:34:09.501Z,30.30
2022-11-25T06:36:41.118Z,30.20
2022-11-25T06:39:12.000Z,30.10
2022-11-25T06:41:42.933Z,30.00
2022-11-25T06:44:19.297Z,30.00
2022-11-25T06:46:52.001Z,29.90
2022-11-25T06:49:23.009Z,29.80
2022-11-25T06:51:54.003Z,29.90
2022-11-25T06:54:25.009Z,29.80
2022-11-25T06:56:57.763Z,29.80
2022-11-25T06:59:29.191Z,29.80
2022-11-25T07:02:00.576Z,30.00
2022-11-25T07:04:32.553Z,30.00
2022-11-25T07:07:03.452Z,30.10
2022-11-25T07:09:34.815Z,30.20
2022-11-25T07:12:06.886Z,30.20
2022-11-25T07:14:38.406Z,30.30
2022-11-25T07:17:12.266Z,30.40
2022-11-25T07:19:44.032Z,30.50
2022-11-25T07:22:15.487Z,30.50
2022-11-25T07:24:47.410Z,30.50
2022-11-25T07:27:19.673Z,30.50
2022-11-25T07:30:18.692Z,30.50
2022-11-25T07:32:25.985Z,30.50
2022-11-25T07:34:56.943Z,30.50
2022-11-25T07:37:30.321Z,30.50
2022-11-25T07:40:01.601Z,30.50
2022-11-25T07:42:32.605Z,30.60
2022-11-25T07:45:05.227Z,30.60
2022-11-25T07:47:41.132Z,30.70
2022-11-25T07:50:12.449Z,30.80
2022-11-25T07:52:43.774Z,30.80
2022-11-25T07:55:15.082Z,30.80
2022-11-25T07:57:45.986Z,30.70
2022-11-25T08:00:20.747Z,30.60
2022-11-25T08:02:51.906Z,30.60
2022-11-25T08:05:23.394Z,30.60
2022-11-25T08:07:56.663Z,30.60
2022-11-25T08:10:26.601Z,30.60
2022-11-25T08:12:57.810Z,30.60
2022-11-25T08:15:28.832Z,30.60
2022-11-25T08:17:59.903Z,30.60
2022-11-25T08:20:32.522Z,30.70
2022-11-25T08:23:03.427Z,30.70
2022-11-25T08:25:34.478Z,30.80
2022-11-25T08:28:05.601Z,30.80
2022-11-25T08:30:36.505Z,30.90
2022-11-25T08:33:10.322Z,30.90
2022-11-25T08:35:41.477Z,30.90
2022-11-25T08:38:14.169Z,30.90
2022-11-25T08:40:46.692Z,30.90
2022-11-25T08:43:26.389Z,30.90
2022-11-25T08:45:54.868Z,30.90
2022-11-25T08:48:26.178Z,30.90
2022-11-25T08:50:59.190Z,30.80
2022-11-25T08:53:30.141Z,30.80
2022-11-25T08:56:01.057Z,30.80
2022-11-25T08:58:32.214Z,30.80
2022-11-25T09:01:03.797Z,30.80
2022-11-25T09:03:42.108Z,30.80
2022-11-25T09:06:17.282Z,30.80
2022-11-25T09:08:48.562Z,30.80
2022-11-25T09:11:19.605Z,30.70
2022-11-25T09:13:50.733Z,30.70
2022-11-25T09:16:22.388Z,30.70
2022-11-25T09:18:56.176Z,30.70
2022-11-25T09:21:25.925Z,30.70
2022-11-25T09:23:57.607Z,30.60
2022-11-25T09:26:35.109Z,30.60
2022-11-25T09:29:07.865Z,30.60
2022-11-25T09:31:38.835Z,30.60
2022-11-25T09:34:11.010Z,30.50
2022-11-25T09:36:44.199Z,30.50
2022-11-25T09:39:15.144Z,30.50
2022-11-25T09:42:18.554Z,30.40
2022-11-25T09:45:14.815Z,30.40
2022-11-25T09:47:57.580Z,30.40
2022-11-25T09:50:37.330Z,30.40
2022-11-25T09:53:19.374Z,30.30
2022-11-25T09:55:54.863Z,30.30
2022-11-25T09:58:36.711Z,30.20
2022-11-25T10:01:12.809Z,30.20
2022-11-25T10:04:01.316Z,30.20
2022-11-25T10:06:35.450Z,30.10
2022-11-25T10:09:17.142Z,30.10
2022-11-25T10:11:58.526Z,30.10
2022-11-25T10:14:33.663Z,30.00
2022-11-25T10:17:15.960Z,30.00
2022-11-25T10:20:04.481Z,29.90
2022-11-25T10:22:44.200Z,29.90
2022-11-25T10:25:29.237Z,29.80
2022-11-25T10:28:21.793Z,29.80
2022-11-25T10:31:07.290Z,29.80
2022-11-25T10:34:08.733Z,29.80
2022-11-25T10:36:45.210Z,29.70
2022-11-25T10:39:21.544Z,29.70
2022-11-25T10:42:05.950Z,29.70
2022-11-25T10:44:41.805Z,29.70
2022-11-25T10:47:40.528Z,29.70
2022-11-25T10:50:33.549Z,29.60
2022-11-25T10:53:12.588Z,29.50
2022-11-25T10:55:46.987Z,29.50
2022-11-25T10:58:32.469Z,29.50
2022-11-25T11:01:22.404Z,29.50
2022-11-25T11:03:59.267Z,29.50
2022-11-25T11:06:45.398Z,29.50
2022-11-25T11:09:35.496Z,29.40
2022-11-25T11:12:24.762Z,29.40
2022-11-25T11:14:57.954Z,29.40
2022-11-25T11:17:37.528Z,29.40
2022-11-25T11:20:24.990Z,29.40
2022-11-25T11:23:09.592Z,29.30
2022-11-25T11:26:05.820Z,29.30
2022-11-25T11:28:41.545Z,29.30
2022-11-25T11:31:25.558Z,29.30
2022-11-25T11:34:30.861Z,29.30
2022-11-25T11:37:34.371Z,29.30
2022-11-25T11:40:29.592Z,29.20
2022-11-25T11:43:37.417Z,29.30
2022-11-25T11:46:17.477Z,29.30
2022-11-25T11:49:19.323Z,29.30
2022-11-25T11:52:13.210Z,29.20
2022-11-25T11:54:58.551Z,29.20
2022-11-25T11:57:57.643Z,29.30
2022-11-25T12:00:31.497Z,29.30
2022-11-25T12:03:07.617Z,29.20
2022-11-25T12:05:39.428Z,29.20
2022-11-25T12:08:33.982Z,29.20
2022-11-25T12:11:07.467Z,29.20
2022-11-25T12:14:05.001Z,29.20
2022-11-25T12:16:47.069Z,29.20
2022-11-25T12:19:25.959Z,29.20
2022-11-25T12:22:08.219Z,29.10
2022-11-25T12:25:10.102Z,29.20
2022-11-25T12:27:46.010Z,29.10
2022-11-25T12:30:40.671Z,29.10
2022-11-25T12:33:25.260Z,29.10
2022-11-25T12:36:23.170Z,29.10
2022-11-25T12:38:58.929Z,29.10
2022-11-25T12:41:38.722Z,29.10
2022-11-25T12:44:18.033Z,29.00
2022-11-25T12:46:51.491Z,29.00
2022-11-25T12:49:30.890Z,29.00
2022-11-25T12:52:31.233Z,29.00
2022-11-25T12:55:20.882Z,29.00
2022-11-25T12:58:25.783Z,29.00
2022-11-25T13:01:05.008Z,28.90
2022-11-25T13:04:04.664Z,29.00
2022-11-25T13:06:53.340Z,29.00
2022-11-25T13:09:42.312Z,29.00
2022-11-25T13:12:25.641Z,28.90
2022-11-25T13:15:17.302Z,28.90
2022-11-25T13:17:50.343Z,29.00
2022-11-25T13:20:47.691Z,29.00
2022-11-25T13:23:41.399Z,29.00
2022-11-25T13:26:39.153Z,29.00
2022-11-25T13:29:21.601Z,28.90
2022-11-25T13:32:05.980Z,28.90
2022-11-25T13:34:39.976Z,28.80
2022-11-25T13:37:42.018Z,28.90
2022-11-25T13:40:36.906Z,28.90
2022-11-25T13:43:16.216Z,28.90
2022-11-25T13:45:56.240Z,28.90
2022-11-25T13:48:38.904Z,28.90
2022-11-25T13:51:24.194Z,28.90
2022-11-25T13:54:00.348Z,28.80
2022-11-25T13:56:39.036Z,28.80
2022-11-25T13:59:21.844Z,28.80
2022-11-25T14:01:55.228Z,28.80
2022-11-25T14:04:34.749Z,28.80
2022-11-25T14:07:14.441Z,28.80
2022-11-25T14:10:06.605Z,28.80
2022-11-25T14:12:39.905Z,28.80
2022-11-25T14:15:34.414Z,28.70
2022-11-25T14:21:28.413Z,28.70
2022-11-25T14:24:07.498Z,28.70
2022-11-25T14:26:50.258Z,28.70
2022-11-25T14:29:25.405Z,28.70
2022-11-25T14:32:22.658Z,28.70
2022-11-25T14:35:07.733Z,28.60
2022-11-25T14:37:43.778Z,28.60
2022-11-25T14:40:36.690Z,28.60
2022-11-25T14:43:12.188Z,28.60
2022-11-25T14:45:43.399Z,28.60
2022-11-25T14:48:23.045Z,28.60
2022-11-25T14:51:08.120Z,28.50
2022-11-25T14:53:49.639Z,28.50
2022-11-25T14:56:37.764Z,28.40
2022-11-25T14:59:14.417Z,28.40
2022-11-25T15:01:48.280Z,28.40
2022-11-25T15:04:26.410Z,28.40
2022-11-25T15:07:01.245Z,28.40
2022-11-25T15:09:35.040Z,28.40
2022-11-25T15:12:14.245Z,28.40
2022-11-25T15:14:47.106Z,28.40
2022-11-25T15:17:30.354Z,28.40
2022-11-25T15:20:05.104Z,28.40
2022-11-25T15:22:40.168Z,28.30
2022-11-25T15:25:13.815Z,28.30
2022-11-25T15:27:49.785Z,28.30
2022-11-25T15:30:31.506Z,28.20
2022-11-25T15:33:04.256Z,28.20
2022-11-25T15:35:35.168Z,28.20
2022-11-25T15:38:24.793Z,28.20
2022-11-25T15:40:59.681Z,28.20
2022-11-25T15:43:34.396Z,28.20
2022-11-25T15:46:07.192Z,28.20
2022-11-25T15:48:52.886Z,28.10
2022-11-25T15:51:46.249Z,28.20
2022-11-25T15:54:31.281Z,28.10
2022-11-25T15:57:08.814Z,28.10
2022-11-25T15:59:53.708Z,28.00
2022-11-25T16:02:50.981Z,28.00
2022-11-25T16:05:36.506Z,28.10
2022-11-25T16:08:29.132Z,28.00
2022-11-25T16:11:15.585Z,28.00
2022-11-25T16:13:45.402Z,28.00
2022-11-25T16:16:27.826Z,28.00
2022-11-25T16:19:17.568Z,28.00
2022-11-25T16:22:03.303Z,28.10
2022-11-25T16:25:01.753Z,28.10
2022-11-25T16:27:30.191Z,28.10
2022-11-25T16:30:09.613Z,28.10
2022-11-25T16:32:40.698Z,28.10
2022-11-25T16:35:25.909Z,28.10
2022-11-25T16:37:59.306Z,28.20
2022-11-25T16:40:30.856Z,28.20
2022-11-25T16:43:02.957Z,28.20
2022-11-25T16:45:34.053Z,28.20
2022-11-25T16:48:06.451Z,28.20
2022-11-25T16:50:41.680Z,28.20
2022-11-25T16:53:12.749Z,28.20
2022-11-25T16:55:45.891Z,28.20
2022-11-25T16:58:24.843Z,28.20
2022-11-25T17:00:58.544Z,28.10
2022-11-25T17:03:30.006Z,28.10
2022-11-25T17:06:02.311Z,28.20
2022-11-25T17:08:33.307Z,28.10
2022-11-25T17:11:05.244Z,28.20
2022-11-25T17:13:36.217Z,28.10
2022-11-25T17:16:12.547Z,28.10
2022-11-25T17:18:46.582Z,28.10
2022-11-25T17:21:18.791Z,28.10
2022-11-25T17:23:55.216Z,28.10
2022-11-25T17:26:42.315Z,28.10
2022-11-25T17:29:21.441Z,28.10
2022-11-25T17:31:57.983Z,28.00
2022-11-25T17:34:27.732Z,28.00
2022-11-25T17:37:01.716Z,28.00
2022-11-25T17:39:32.666Z,28.00
2022-11-25T17:42:05.184Z,28.00
2022-11-25T17:44:36.419Z,28.00
2022-11-25T17:47:11.830Z,28.00
2022-11-25T17:49:43.157Z,27.90
2022-11-25T17:52:14.299Z,27.90
2022-11-25T17:54:46.399Z,27.90
2022-11-25T17:57:19.646Z,27.90
2022-11-25T17:59:51.290Z,27.80
2022-11-25T18:02:24.071Z,27.80
2022-11-25T18:04:56.456Z,27.70
2022-11-25T18:07:28.121Z,27.70
2022-11-25T18:09:59.105Z,27.70
2022-11-25T18:12:33.062Z,27.70
2022-11-25T18:15:05.449Z,27.70
2022-11-25T18:17:37.801Z,27.70
2022-11-25T18:20:30.805Z,27.70
2022-11-25T18:23:04.866Z,27.60
2022-11-25T18:25:36.107Z,27.60
2022-11-25T18:28:09.006Z,27.60
2022-11-25T18:30:41.311Z,27.50
2022-11-25T18:33:15.954Z,27.50
2022-11-25T18:35:48.221Z,27.50
2022-11-25T18:38:27.858Z,27.50
2022-11-25T18:41:02.265Z,27.50
2022-11-25T18:43:34.605Z,27.40
2022-11-25T18:46:06.378Z,27.40
2022-11-25T18:48:38.194Z,27.40
2022-11-25T18:51:10.591Z,27.40
2022-11-25T18:53:41.641Z,27.40
2022-11-25T18:56:18.060Z,27.40
2022-11-25T18:58:52.847Z,27.30
2022-11-25T19:01:25.294Z,27.30
2022-11-25T19:03:56.735Z,27.30
2022-11-25T19:06:29.543Z,27.30
2022-11-25T19:09:00.944Z,27.30
2022-11-25T19:11:33.545Z,27.20
2022-11-25T19:14:24.668Z,27.20
2022-11-25T19:16:56.239Z,27.20
2022-11-25T19:19:27.185Z,27.20
2022-11-25T19:21:59.696Z,27.20
2022-11-25T19:24:32.941Z,27.10
2022-11-25T19:27:04.481Z,27.00
2022-11-25T19:29:41.776Z,27.00
2022-11-25T19:32:13.412Z,26.90
2022-11-25T19:34:48.623Z,26.90
2022-11-25T19:37:21.702Z,26.80
2022-11-25T19:39:53.453Z,26.80
2022-11-25T19:42:26.092Z,26.70
2022-11-25T19:44:59.143Z,26.70
2022-11-25T19:47:30.237Z,26.70
2022-11-25T19:50:04.403Z,26.60
2022-11-25T19:52:41.077Z,26.50
2022-11-25T19:55:16.971Z,26.50
2022-11-25T19:57:49.170Z,26.40
2022-11-25T20:00:22.873Z,26.30
2022-11-25T20:02:56.024Z,26.40
2022-11-25T20:05:35.740Z,26.30
2022-11-25T20:08:07.091Z,26.30
2022-11-25T20:10:38.028Z,26.20
2022-11-25T20:13:09.950Z,26.20
2022-11-25T20:15:42.452Z,26.20
2022-11-25T20:18:18.193Z,26.20
2022-11-25T20:20:52.641Z,26.10
2022-11-25T20:23:28.694Z,26.10
2022-11-25T20:25:59.574Z,26.00
2022-11-25T20:28:31.970Z,26.00
2022-11-25T20:31:02.942Z,25.90
2022-11-25T20:33:36.866Z,25.90
2022-11-25T20:36:10.591Z,25.80
2022-11-25T20:38:43.941Z,25.80
2022-11-25T20:41:15.755Z,25.70
2022-11-25T20:43:48.909Z,25.70
2022-11-25T20:46:33.415Z,25.70
2022-11-25T20:49:07.599Z,25.60
2022-11-25T20:51:38.557Z,25.50
2022-11-25T20:54:12.638Z,25.50
2022-11-25T20:56:43.768Z,25.50
2022-11-25T20:59:25.438Z,25.40
2022-11-25T21:01:56.525Z,25.30
2022-11-25T21:04:27.633Z,25.30
2022-11-25T21:06:59.919Z,25.20
2022-11-25T21:09:33.430Z,25.20
2022-11-25T21:12:05.042Z,25.10
2022-11-25T21:14:36.313Z,25.10
2022-11-25T21:17:09.488Z,25.10
2022-11-25T21:19:40.409Z,25.00
2022-11-25T21:22:13.654Z,25.00
2022-11-25T21:24:48.674Z,25.00
2022-11-25T21:27:21.700Z,25.00
2022-11-25T21:29:52.633Z,25.00
2022-11-25T21:32:25.924Z,25.00
2022-11-25T21:34:57.956Z,25.00
2022-11-25T21:37:34.314Z,25.00
2022-11-25T21:40:06.598Z,24.90
2022-11-25T21:42:37.513Z,25.00
2022-11-25T21:45:09.062Z,25.00
2022-11-25T21:47:42.868Z,25.00
2022-11-25T21:50:20.703Z,24.90
2022-11-25T21:52:51.637Z,25.00
2022-11-25T21:55:22.562Z,25.00
2022-11-25T21:57:53.513Z,25.00
2022-11-25T22:00:26.975Z,25.00
2022-11-25T22:02:58.071Z,25.00
2022-11-25T22:05:30.948Z,25.00
2022-11-25T22:08:01.920Z,25.00
2022-11-25T22:10:33.647Z,25.00
2022-11-25T22:13:05.380Z,25.00
2022-11-25T22:15:37.523Z,25.10
2022-11-25T22:18:10.004Z,25.10
2022-11-25T22:20:44.027Z,25.10
2022-11-25T22:23:19.334Z,25.10
2022-11-25T22:25:51.766Z,25.10
2022-11-25T22:28:28.592Z,25.10
2022-11-25T22:30:59.486Z,25.10
2022-11-25T22:33:35.602Z,25.10
2022-11-25T22:36:07.327Z,25.10
2022-11-25T22:38:38.244Z,25.20
2022-11-25T22:41:09.196Z,25.20
2022-11-25T22:43:42.468Z,25.20
2022-11-25T22:46:13.805Z,25.20
2022-11-25T22:48:46.703Z,25.20
2022-11-25T22:51:23.068Z,25.10
2022-11-25T22:53:53.985Z,25.20
2022-11-25T22:59:17.010Z,25.10
2022-11-25T23:01:48.128Z,25.20
2022-11-25T23:04:20.860Z,25.20
2022-11-25T23:06:53.102Z,25.30
2022-11-25T23:09:24.018Z,25.30
2022-11-25T23:11:59.733Z,25.30
2022-11-25T23:14:30.668Z,25.30
2022-11-25T23:17:06.613Z,25.30
2022-11-25T23:19:37.783Z,25.30
2022-11-25T23:22:13.361Z,25.20
2022-11-25T23:24:53.496Z,25.20
2022-11-25T23:27:24.600Z,25.20
2022-11-25T23:29:55.795Z,25.20
2022-11-25T23:32:26.798Z,25.20
2022-11-25T23:34:57.942Z,25.10
2022-11-25T23:37:29.601Z,25.10
2022-11-25T23:40:02.631Z,25.10
2022-11-25T23:42:36.502Z,25.10
2022-11-25T23:45:09.071Z,25.10
2022-11-25T23:47:40.026Z,25.10
2022-11-25T23:50:12.644Z,25.20
2022-11-25T23:52:44.305Z,25.10
2022-11-25T23:55:20.693Z,25.10
2022-11-25T23:57:51.881Z,25.20
